sensor_id;sensor_type;location;lat;lon;timestamp;noise_LAeq;noise_LA_min;noise_LA_max;noise_LA01;noise_LA95
65079;Laerm;52655;52.218;5.964;2023-04-03T00:00:57;37.0;31.4;52.0;;
65079;Laerm;52655;52.218;5.964;2023-04-03T00:02:58;35.3;30.8;52.6;;
65079;Laerm;52655;52.218;5.964;2023-04-03T00:04:57;32.0;30.4;37.8;;
65079;Laerm;52655;52.218;5.964;2023-04-03T00:06:57;32.4;30.1;37.3;;
65079;Laerm;52655;52.218;5.964;2023-04-03T00:08:58;31.9;30.0;34.8;;
65079;Laerm;52655;52.218;5.964;2023-04-03T00:10:58;32.1;30.5;35.5;;
65079;Laerm;52655;52.218;5.964;2023-04-03T00:12:58;31.4;29.3;33.7;;
65079;Laerm;52655;52.218;5.964;2023-04-03T00:14:58;35.7;30.6;52.2;;
65079;Laerm;52655;52.218;5.964;2023-04-03T00:16:58;32.9;30.7;41.2;;
65079;Laerm;52655;52.218;5.964;2023-04-03T00:18:58;32.7;31.0;35.7;;
65079;Laerm;52655;52.218;5.964;2023-04-03T00:20:58;33.3;30.5;46.1;;
65079;Laerm;52655;52.218;5.964;2023-04-03T00:22:58;33.7;30.9;45.7;;
65079;Laerm;52655;52.218;5.964;2023-04-03T00:24:59;33.4;31.1;42.6;;
65079;Laerm;52655;52.218;5.964;2023-04-03T00:26:58;33.7;30.1;46.6;;
65079;Laerm;52655;52.218;5.964;2023-04-03T00:30:59;32.4;29.7;48.3;;
65079;Laerm;52655;52.218;5.964;2023-04-03T00:32:58;33.3;30.9;37.8;;
65079;Laerm;52655;52.218;5.964;2023-04-03T00:34:58;32.3;30.3;40.0;;
65079;Laerm;52655;52.218;5.964;2023-04-03T00:36:58;32.4;30.4;35.8;;
65079;Laerm;52655;52.218;5.964;2023-04-03T00:38:58;33.0;30.7;40.6;;
65079;Laerm;52655;52.218;5.964;2023-04-03T00:40:58;34.4;30.9;46.3;;
65079;Laerm;52655;52.218;5.964;2023-04-03T00:42:59;32.9;30.7;44.4;;
65079;Laerm;52655;52.218;5.964;2023-04-03T00:45:35;32.8;30.5;37.2;;
65079;Laerm;52655;52.218;5.964;2023-04-03T00:46:59;32.3;30.3;35.2;;
65079;Laerm;52655;52.218;5.964;2023-04-03T00:48:59;32.8;30.8;37.5;;
65079;Laerm;52655;52.218;5.964;2023-04-03T00:50:59;32.8;31.1;36.9;;
65079;Laerm;52655;52.218;5.964;2023-04-03T00:52:59;35.0;30.9;46.7;;
65079;Laerm;52655;52.218;5.964;2023-04-03T00:55:02;32.8;30.4;39.3;;
65079;Laerm;52655;52.218;5.964;2023-04-03T00:56:59;33.2;31.1;38.0;;
65079;Laerm;52655;52.218;5.964;2023-04-03T00:59:08;34.1;30.9;39.7;;
65079;Laerm;52655;52.218;5.964;2023-04-03T01:00:59;35.1;30.8;52.4;;
65079;Laerm;52655;52.218;5.964;2023-04-03T01:02:59;32.1;30.3;34.6;;
65079;Laerm;52655;52.218;5.964;2023-04-03T01:04:59;32.8;30.8;36.8;;
65079;Laerm;52655;52.218;5.964;2023-04-03T01:07:04;33.0;30.8;37.9;;
65079;Laerm;52655;52.218;5.964;2023-04-03T01:09:00;38.2;30.6;56.6;;
65079;Laerm;52655;52.218;5.964;2023-04-03T01:10:59;32.3;30.7;35.7;;
65079;Laerm;52655;52.218;5.964;2023-04-03T01:13:00;32.7;30.7;35.4;;
65079;Laerm;52655;52.218;5.964;2023-04-03T01:15:00;33.9;31.5;40.0;;
65079;Laerm;52655;52.218;5.964;2023-04-03T01:19:00;34.0;30.8;56.6;;
65079;Laerm;52655;52.218;5.964;2023-04-03T01:21:45;34.1;31.3;39.1;;
65079;Laerm;52655;52.218;5.964;2023-04-03T01:25:00;32.8;30.8;35.2;;
65079;Laerm;52655;52.218;5.964;2023-04-03T01:27:00;33.2;30.8;41.1;;
65079;Laerm;52655;52.218;5.964;2023-04-03T01:29:00;33.0;31.2;37.0;;
65079;Laerm;52655;52.218;5.964;2023-04-03T01:31:02;33.6;30.8;49.8;;
65079;Laerm;52655;52.218;5.964;2023-04-03T01:33:00;33.7;31.0;39.3;;
65079;Laerm;52655;52.218;5.964;2023-04-03T01:35:00;33.2;30.8;41.1;;
65079;Laerm;52655;52.218;5.964;2023-04-03T01:37:00;33.6;31.3;37.1;;
65079;Laerm;52655;52.218;5.964;2023-04-03T01:39:00;32.4;30.7;35.8;;
65079;Laerm;52655;52.218;5.964;2023-04-03T01:41:00;31.9;30.3;34.8;;
65079;Laerm;52655;52.218;5.964;2023-04-03T01:43:00;35.8;30.3;53.6;;
65079;Laerm;52655;52.218;5.964;2023-04-03T01:45:00;33.2;31.0;36.9;;
65079;Laerm;52655;52.218;5.964;2023-04-03T01:47:00;32.4;30.7;35.6;;
65079;Laerm;52655;52.218;5.964;2023-04-03T01:49:01;32.4;30.4;35.2;;
65079;Laerm;52655;52.218;5.964;2023-04-03T01:51:00;32.1;30.2;34.8;;
65079;Laerm;52655;52.218;5.964;2023-04-03T01:55:01;31.9;30.4;36.0;;
65079;Laerm;52655;52.218;5.964;2023-04-03T01:57:01;33.4;30.8;39.7;;
65079;Laerm;52655;52.218;5.964;2023-04-03T01:59:01;32.8;30.8;38.2;;
65079;Laerm;52655;52.218;5.964;2023-04-03T02:01:01;34.6;31.0;49.4;;
65079;Laerm;52655;52.218;5.964;2023-04-03T02:03:01;32.6;30.9;35.6;;
65079;Laerm;52655;52.218;5.964;2023-04-03T02:05:01;32.6;30.8;35.2;;
65079;Laerm;52655;52.218;5.964;2023-04-03T02:07:01;38.0;30.7;55.6;;
65079;Laerm;52655;52.218;5.964;2023-04-03T02:09:01;34.0;31.9;38.2;;
65079;Laerm;52655;52.218;5.964;2023-04-03T02:11:01;38.7;31.1;56.6;;
65079;Laerm;52655;52.218;5.964;2023-04-03T02:13:01;37.6;31.0;55.1;;
65079;Laerm;52655;52.218;5.964;2023-04-03T02:15:01;39.0;30.9;58.1;;
65079;Laerm;52655;52.218;5.964;2023-04-03T02:17:01;35.4;31.9;47.0;;
65079;Laerm;52655;52.218;5.964;2023-04-03T02:19:01;33.5;31.4;37.6;;
65079;Laerm;52655;52.218;5.964;2023-04-03T02:21:01;32.9;31.2;35.2;;
65079;Laerm;52655;52.218;5.964;2023-04-03T02:23:01;33.6;31.5;36.5;;
65079;Laerm;52655;52.218;5.964;2023-04-03T02:27:01;33.9;31.6;37.8;;
65079;Laerm;52655;52.218;5.964;2023-04-03T02:29:02;35.5;32.2;43.5;;
65079;Laerm;52655;52.218;5.964;2023-04-03T02:31:02;38.7;31.8;57.5;;
65079;Laerm;52655;52.218;5.964;2023-04-03T02:33:01;34.2;31.7;44.4;;
65079;Laerm;52655;52.218;5.964;2023-04-03T02:35:02;34.1;31.6;44.7;;
65079;Laerm;52655;52.218;5.964;2023-04-03T02:37:02;40.3;31.8;57.5;;
65079;Laerm;52655;52.218;5.964;2023-04-03T02:39:02;34.9;32.6;47.2;;
65079;Laerm;52655;52.218;5.964;2023-04-03T02:41:02;38.2;32.9;53.9;;
65079;Laerm;52655;52.218;5.964;2023-04-03T02:43:02;49.2;31.8;58.5;;
65079;Laerm;52655;52.218;5.964;2023-04-03T02:45:02;38.9;31.8;48.5;;
65079;Laerm;52655;52.218;5.964;2023-04-03T02:47:02;47.7;32.6;57.8;;
65079;Laerm;52655;52.218;5.964;2023-04-03T02:49:02;34.4;31.8;45.8;;
65079;Laerm;52655;52.218;5.964;2023-04-03T02:51:02;34.0;31.8;44.0;;
65079;Laerm;52655;52.218;5.964;2023-04-03T02:53:02;42.0;32.4;56.3;;
65079;Laerm;52655;52.218;5.964;2023-04-03T02:55:02;38.0;32.3;55.1;;
65079;Laerm;52655;52.218;5.964;2023-04-03T02:57:02;35.0;31.8;43.8;;
65079;Laerm;52655;52.218;5.964;2023-04-03T02:59:02;35.4;32.5;47.1;;
65079;Laerm;52655;52.218;5.964;2023-04-03T03:01:02;37.1;32.4;53.4;;
65079;Laerm;52655;52.218;5.964;2023-04-03T03:03:02;38.2;33.6;54.6;;
65079;Laerm;52655;52.218;5.964;2023-04-03T03:07:03;38.4;33.9;63.5;;
65079;Laerm;52655;52.218;5.964;2023-04-03T03:09:03;36.6;33.8;47.7;;
65079;Laerm;52655;52.218;5.964;2023-04-03T03:13:03;37.7;34.3;46.4;;
65079;Laerm;52655;52.218;5.964;2023-04-03T03:15:03;39.3;34.2;54.5;;
65079;Laerm;52655;52.218;5.964;2023-04-03T03:17:03;37.1;34.3;47.8;;
65079;Laerm;52655;52.218;5.964;2023-04-03T03:19:03;37.5;34.1;53.3;;
65079;Laerm;52655;52.218;5.964;2023-04-03T03:21:03;36.5;33.9;42.2;;
65079;Laerm;52655;52.218;5.964;2023-04-03T03:23:03;37.0;34.0;45.2;;
65079;Laerm;52655;52.218;5.964;2023-04-03T03:25:03;36.5;34.3;41.5;;
65079;Laerm;52655;52.218;5.964;2023-04-03T03:27:03;47.9;34.9;58.1;;
65079;Laerm;52655;52.218;5.964;2023-04-03T03:29:03;45.2;35.4;57.0;;
65079;Laerm;52655;52.218;5.964;2023-04-03T03:31:03;40.5;35.8;55.2;;
65079;Laerm;52655;52.218;5.964;2023-04-03T03:33:03;41.0;35.2;57.6;;
65079;Laerm;52655;52.218;5.964;2023-04-03T03:35:03;41.1;36.5;57.6;;
65079;Laerm;52655;52.218;5.964;2023-04-03T03:37:03;48.3;36.3;59.6;;
65079;Laerm;52655;52.218;5.964;2023-04-03T03:39:03;45.5;37.0;64.1;;
65079;Laerm;52655;52.218;5.964;2023-04-03T03:41:03;47.1;36.3;62.8;;
65079;Laerm;52655;52.218;5.964;2023-04-03T03:43:04;51.2;38.4;66.5;;
65079;Laerm;52655;52.218;5.964;2023-04-03T03:45:04;56.8;36.5;70.3;;
65079;Laerm;52655;52.218;5.964;2023-04-03T03:47:04;51.1;35.5;67.9;;
65079;Laerm;52655;52.218;5.964;2023-04-03T03:49:04;57.3;36.4;73.0;;
65079;Laerm;52655;52.218;5.964;2023-04-03T03:51:04;59.8;35.4;74.0;;
65079;Laerm;52655;52.218;5.964;2023-04-03T03:53:04;58.7;37.6;76.0;;
65079;Laerm;52655;52.218;5.964;2023-04-03T03:55:04;60.9;36.5;72.1;;
65079;Laerm;52655;52.218;5.964;2023-04-03T03:57:04;59.1;36.8;75.0;;
65079;Laerm;52655;52.218;5.964;2023-04-03T03:59:04;60.9;36.5;75.0;;
65079;Laerm;52655;52.218;5.964;2023-04-03T04:01:05;59.3;36.6;73.0;;
65079;Laerm;52655;52.218;5.964;2023-04-03T04:03:04;57.5;36.6;74.0;;
65079;Laerm;52655;52.218;5.964;2023-04-03T04:05:04;50.7;36.8;67.0;;
65079;Laerm;52655;52.218;5.964;2023-04-03T04:07:04;44.7;38.2;59.0;;
65079;Laerm;52655;52.218;5.964;2023-04-03T04:09:04;49.2;37.1;64.0;;
65079;Laerm;52655;52.218;5.964;2023-04-03T04:11:05;50.7;37.0;66.0;;
65079;Laerm;52655;52.218;5.964;2023-04-03T04:13:04;51.5;37.3;66.0;;
65079;Laerm;52655;52.218;5.964;2023-04-03T04:15:05;49.2;37.4;64.0;;
65079;Laerm;52655;52.218;5.964;2023-04-03T04:17:04;52.0;37.6;67.0;;
65079;Laerm;52655;52.218;5.964;2023-04-03T04:19:05;53.6;37.1;68.0;;
65079;Laerm;52655;52.218;5.964;2023-04-03T04:21:05;54.4;38.2;69.0;;
65079;Laerm;52655;52.218;5.964;2023-04-03T04:23:05;55.4;39.3;71.0;;
65079;Laerm;52655;52.218;5.964;2023-04-03T04:25:05;53.8;38.7;69.0;;
65079;Laerm;52655;52.218;5.964;2023-04-03T04:27:05;47.7;38.7;68.0;;
65079;Laerm;52655;52.218;5.964;2023-04-03T04:29:05;52.5;39.1;67.0;;
65079;Laerm;52655;52.218;5.964;2023-04-03T04:31:05;53.8;39.1;66.0;;
65079;Laerm;52655;52.218;5.964;2023-04-03T04:33:05;53.0;39.0;65.0;;
65079;Laerm;52655;52.218;5.964;2023-04-03T04:35:05;53.1;39.8;63.0;;
65079;Laerm;52655;52.218;5.964;2023-04-03T04:37:05;52.2;39.8;69.0;;
65079;Laerm;52655;52.218;5.964;2023-04-03T04:39:05;55.2;40.1;70.0;;
65079;Laerm;52655;52.218;5.964;2023-04-03T04:41:05;51.7;40.0;65.0;;
65079;Laerm;52655;52.218;5.964;2023-04-03T04:43:05;55.2;40.3;68.0;;
65079;Laerm;52655;52.218;5.964;2023-04-03T04:45:06;51.7;40.7;64.0;;
65079;Laerm;52655;52.218;5.964;2023-04-03T04:49:05;50.4;39.9;64.0;;
65079;Laerm;52655;52.218;5.964;2023-04-03T04:51:06;54.1;40.4;66.0;;
65079;Laerm;52655;52.218;5.964;2023-04-03T04:53:05;53.0;41.5;65.0;;
65079;Laerm;52655;52.218;5.964;2023-04-03T04:57:06;50.7;39.5;65.0;;
65079;Laerm;52655;52.218;5.964;2023-04-03T04:59:06;46.8;39.3;66.0;;
65079;Laerm;52655;52.218;5.964;2023-04-03T05:01:06;49.2;40.3;65.0;;
65079;Laerm;52655;52.218;5.964;2023-04-03T05:03:06;51.4;40.5;63.0;;
65079;Laerm;52655;52.218;5.964;2023-04-03T05:05:06;51.8;40.7;65.2;;
65079;Laerm;52655;52.218;5.964;2023-04-03T05:07:06;48.0;40.0;59.7;;
65079;Laerm;52655;52.218;5.964;2023-04-03T05:09:06;48.9;40.4;66.0;;
65079;Laerm;52655;52.218;5.964;2023-04-03T05:11:06;51.8;39.9;66.0;;
65079;Laerm;52655;52.218;5.964;2023-04-03T05:13:06;52.8;40.7;67.0;;
65079;Laerm;52655;52.218;5.964;2023-04-03T05:15:06;50.5;40.4;66.0;;
65079;Laerm;52655;52.218;5.964;2023-04-03T05:17:06;46.1;40.7;54.8;;
65079;Laerm;52655;52.218;5.964;2023-04-03T05:19:06;46.2;40.8;63.0;;
65079;Laerm;52655;52.218;5.964;2023-04-03T05:21:06;47.2;41.0;57.6;;
65079;Laerm;52655;52.218;5.964;2023-04-03T05:23:06;47.7;41.0;56.9;;
65079;Laerm;52655;52.218;5.964;2023-04-03T05:25:06;46.1;40.5;59.8;;
65079;Laerm;52655;52.218;5.964;2023-04-03T05:27:06;48.6;40.4;60.8;;
65079;Laerm;52655;52.218;5.964;2023-04-03T05:29:06;48.4;41.3;57.3;;
65079;Laerm;52655;52.218;5.964;2023-04-03T05:31:06;46.7;41.4;55.7;;
65079;Laerm;52655;52.218;5.964;2023-04-03T05:33:07;45.7;40.3;56.1;;
65079;Laerm;52655;52.218;5.964;2023-04-03T05:35:07;45.0;41.1;55.5;;
65079;Laerm;52655;52.218;5.964;2023-04-03T05:37:07;48.7;39.8;59.5;;
65079;Laerm;52655;52.218;5.964;2023-04-03T05:39:07;48.2;40.9;58.6;;
65079;Laerm;52655;52.218;5.964;2023-04-03T05:41:07;47.2;40.9;61.0;;
65079;Laerm;52655;52.218;5.964;2023-04-03T05:43:07;48.7;41.3;63.0;;
65079;Laerm;52655;52.218;5.964;2023-04-03T05:45:07;45.4;41.0;65.0;;
65079;Laerm;52655;52.218;5.964;2023-04-03T05:47:07;45.7;40.7;59.7;;
65079;Laerm;52655;52.218;5.964;2023-04-03T05:49:07;47.4;39.4;57.5;;
65079;Laerm;52655;52.218;5.964;2023-04-03T05:51:09;46.5;40.7;55.5;;
65079;Laerm;52655;52.218;5.964;2023-04-03T05:53:17;46.9;40.9;62.2;;
65079;Laerm;52655;52.218;5.964;2023-04-03T05:55:08;45.5;40.7;55.3;;
65079;Laerm;52655;52.218;5.964;2023-04-03T05:57:07;47.1;41.7;54.7;;
65079;Laerm;52655;52.218;5.964;2023-04-03T05:59:07;46.8;40.5;57.4;;
65079;Laerm;52655;52.218;5.964;2023-04-03T06:01:07;46.7;39.4;58.7;;
65079;Laerm;52655;52.218;5.964;2023-04-03T06:03:07;48.6;40.7;60.7;;
65079;Laerm;52655;52.218;5.964;2023-04-03T06:05:08;48.7;40.7;62.1;;
65079;Laerm;52655;52.218;5.964;2023-04-03T06:07:09;47.7;40.6;60.1;;
65079;Laerm;52655;52.218;5.964;2023-04-03T06:09:08;47.0;40.7;63.8;;
65079;Laerm;52655;52.218;5.964;2023-04-03T06:11:08;48.8;40.9;60.0;;
65079;Laerm;52655;52.218;5.964;2023-04-03T06:13:08;50.3;40.6;61.8;;
65079;Laerm;52655;52.218;5.964;2023-04-03T06:15:09;52.1;40.7;71.0;;
65079;Laerm;52655;52.218;5.964;2023-04-03T06:17:08;48.4;40.6;66.0;;
65079;Laerm;52655;52.218;5.964;2023-04-03T06:19:08;47.4;41.3;55.2;;
65079;Laerm;52655;52.218;5.964;2023-04-03T06:21:08;49.7;40.4;63.7;;
65079;Laerm;52655;52.218;5.964;2023-04-03T06:23:08;50.0;40.0;62.5;;
65079;Laerm;52655;52.218;5.964;2023-04-03T06:25:08;48.7;40.2;59.2;;
65079;Laerm;52655;52.218;5.964;2023-04-03T06:27:09;47.2;40.5;62.8;;
65079;Laerm;52655;52.218;5.964;2023-04-03T06:29:08;47.1;41.1;59.0;;
65079;Laerm;52655;52.218;5.964;2023-04-03T06:31:08;47.9;40.4;62.4;;
65079;Laerm;52655;52.218;5.964;2023-04-03T06:33:08;47.4;40.4;63.7;;
65079;Laerm;52655;52.218;5.964;2023-04-03T06:35:08;49.7;40.5;67.0;;
65079;Laerm;52655;52.218;5.964;2023-04-03T06:37:10;48.2;39.9;63.7;;
65079;Laerm;52655;52.218;5.964;2023-04-03T06:39:09;46.4;40.0;54.8;;
65079;Laerm;52655;52.218;5.964;2023-04-03T06:41:08;45.2;38.3;55.0;;
65079;Laerm;52655;52.218;5.964;2023-04-03T06:43:09;46.9;39.5;59.0;;
65079;Laerm;52655;52.218;5.964;2023-04-03T06:45:09;45.7;38.4;57.5;;
65079;Laerm;52655;52.218;5.964;2023-04-03T06:47:09;46.4;39.5;54.8;;
65079;Laerm;52655;52.218;5.964;2023-04-03T06:49:09;53.5;40.1;67.0;;
65079;Laerm;52655;52.218;5.964;2023-04-03T06:51:09;49.9;40.2;67.0;;
65079;Laerm;52655;52.218;5.964;2023-04-03T06:53:09;50.4;40.1;65.3;;
65079;Laerm;52655;52.218;5.964;2023-04-03T06:55:09;45.5;38.8;63.0;;
65079;Laerm;52655;52.218;5.964;2023-04-03T06:57:09;46.2;39.2;56.2;;
65079;Laerm;52655;52.218;5.964;2023-04-03T06:59:09;46.3;39.1;62.1;;
65079;Laerm;52655;52.218;5.964;2023-04-03T07:01:09;46.6;37.7;62.7;;
65079;Laerm;52655;52.218;5.964;2023-04-03T07:03:09;46.7;38.7;55.9;;
65079;Laerm;52655;52.218;5.964;2023-04-03T07:05:09;46.8;38.1;58.3;;
65079;Laerm;52655;52.218;5.964;2023-04-03T07:07:09;46.4;39.0;58.1;;
65079;Laerm;52655;52.218;5.964;2023-04-03T07:09:09;44.2;37.9;56.2;;
65079;Laerm;52655;52.218;5.964;2023-04-03T07:11:11;46.9;38.7;64.7;;
65079;Laerm;52655;52.218;5.964;2023-04-03T07:13:09;44.4;37.4;56.0;;
65079;Laerm;52655;52.218;5.964;2023-04-03T07:15:10;43.8;36.4;54.1;;
65079;Laerm;52655;52.218;5.964;2023-04-03T07:17:10;44.9;37.6;60.5;;
65079;Laerm;52655;52.218;5.964;2023-04-03T07:21:10;48.2;37.6;63.7;;
65079;Laerm;52655;52.218;5.964;2023-04-03T07:23:10;45.2;37.6;53.4;;
65079;Laerm;52655;52.218;5.964;2023-04-03T07:25:10;45.7;37.3;63.0;;
65079;Laerm;52655;52.218;5.964;2023-04-03T07:27:10;44.6;35.8;52.0;;
65079;Laerm;52655;52.218;5.964;2023-04-03T07:29:10;44.4;37.7;58.3;;
65079;Laerm;52655;52.218;5.964;2023-04-03T07:31:11;45.5;37.3;52.9;;
65079;Laerm;52655;52.218;5.964;2023-04-03T07:33:10;49.1;36.8;67.0;;
65079;Laerm;52655;52.218;5.964;2023-04-03T07:35:10;47.6;39.5;59.1;;
65079;Laerm;52655;52.218;5.964;2023-04-03T07:37:10;43.5;36.7;55.1;;
65079;Laerm;52655;52.218;5.964;2023-04-03T07:39:10;45.6;39.3;55.9;;
65079;Laerm;52655;52.218;5.964;2023-04-03T07:41:11;47.3;38.4;58.9;;
65079;Laerm;52655;52.218;5.964;2023-04-03T07:43:10;46.1;40.5;56.2;;
65079;Laerm;52655;52.218;5.964;2023-04-03T07:45:11;45.7;38.3;56.9;;
65079;Laerm;52655;52.218;5.964;2023-04-03T07:47:10;51.0;37.5;66.0;;
65079;Laerm;52655;52.218;5.964;2023-04-03T07:49:10;50.2;37.4;64.0;;
65079;Laerm;52655;52.218;5.964;2023-04-03T07:53:10;47.2;37.3;67.3;;
65079;Laerm;52655;52.218;5.964;2023-04-03T07:55:11;45.7;37.6;62.9;;
65079;Laerm;52655;52.218;5.964;2023-04-03T07:57:11;46.8;38.6;54.9;;
65079;Laerm;52655;52.218;5.964;2023-04-03T07:59:11;46.1;37.9;58.1;;
65079;Laerm;52655;52.218;5.964;2023-04-03T08:01:11;47.6;38.1;64.3;;
65079;Laerm;52655;52.218;5.964;2023-04-03T08:03:12;48.7;39.0;64.7;;
65079;Laerm;52655;52.218;5.964;2023-04-03T08:05:11;47.3;36.0;67.0;;
65079;Laerm;52655;52.218;5.964;2023-04-03T08:07:11;44.5;37.2;55.9;;
65079;Laerm;52655;52.218;5.964;2023-04-03T08:09:11;46.4;37.2;63.0;;
65079;Laerm;52655;52.218;5.964;2023-04-03T08:11:11;43.8;37.6;56.6;;
65079;Laerm;52655;52.218;5.964;2023-04-03T08:13:11;42.1;36.7;50.8;;
65079;Laerm;52655;52.218;5.964;2023-04-03T08:15:11;45.5;38.3;57.4;;
65079;Laerm;52655;52.218;5.964;2023-04-03T08:17:11;43.9;36.9;57.7;;
65079;Laerm;52655;52.218;5.964;2023-04-03T08:19:11;45.8;37.5;57.8;;
65079;Laerm;52655;52.218;5.964;2023-04-03T08:21:12;45.9;39.5;60.0;;
65079;Laerm;52655;52.218;5.964;2023-04-03T08:23:11;45.6;37.9;57.3;;
65079;Laerm;52655;52.218;5.964;2023-04-03T08:25:11;48.2;38.8;62.8;;
65079;Laerm;52655;52.218;5.964;2023-04-03T08:27:12;48.3;40.2;60.1;;
65079;Laerm;52655;52.218;5.964;2023-04-03T08:29:12;45.2;38.4;58.2;;
65079;Laerm;52655;52.218;5.964;2023-04-03T08:31:14;44.9;39.0;54.4;;
65079;Laerm;52655;52.218;5.964;2023-04-03T08:33:12;44.5;37.6;58.3;;
65079;Laerm;52655;52.218;5.964;2023-04-03T08:35:12;44.6;39.0;53.3;;
65079;Laerm;52655;52.218;5.964;2023-04-03T08:37:12;48.3;38.1;63.8;;
65079;Laerm;52655;52.218;5.964;2023-04-03T08:39:12;47.2;38.7;62.2;;
65079;Laerm;52655;52.218;5.964;2023-04-03T08:41:13;48.7;39.0;62.8;;
65079;Laerm;52655;52.218;5.964;2023-04-03T08:43:36;49.8;39.8;64.4;;
65079;Laerm;52655;52.218;5.964;2023-04-03T08:45:13;46.2;40.2;56.8;;
65079;Laerm;52655;52.218;5.964;2023-04-03T08:47:22;46.5;39.9;58.9;;
65079;Laerm;52655;52.218;5.964;2023-04-03T08:49:13;47.3;41.5;60.4;;
65079;Laerm;52655;52.218;5.964;2023-04-03T08:51:13;46.0;40.5;57.0;;
65079;Laerm;52655;52.218;5.964;2023-04-03T08:53:15;46.2;39.3;60.3;;
65079;Laerm;52655;52.218;5.964;2023-04-03T08:55:15;44.7;39.4;54.0;;
65079;Laerm;52655;52.218;5.964;2023-04-03T08:57:12;45.4;37.9;55.1;;
65079;Laerm;52655;52.218;5.964;2023-04-03T08:59:14;45.9;39.1;57.6;;
65079;Laerm;52655;52.218;5.964;2023-04-03T09:01:16;46.2;37.9;56.5;;
65079;Laerm;52655;52.218;5.964;2023-04-03T09:03:13;45.7;38.0;59.8;;
65079;Laerm;52655;52.218;5.964;2023-04-03T09:05:15;45.2;40.5;53.6;;
65079;Laerm;52655;52.218;5.964;2023-04-03T09:07:22;44.9;39.3;52.2;;
65079;Laerm;52655;52.218;5.964;2023-04-03T09:09:30;43.9;39.5;53.8;;
65079;Laerm;52655;52.218;5.964;2023-04-03T09:11:17;45.7;38.7;54.9;;
65079;Laerm;52655;52.218;5.964;2023-04-03T09:13:19;44.7;39.7;54.7;;
65079;Laerm;52655;52.218;5.964;2023-04-03T09:15:18;48.4;38.4;60.9;;
65079;Laerm;52655;52.218;5.964;2023-04-03T09:17:23;45.7;38.7;62.4;;
65079;Laerm;52655;52.218;5.964;2023-04-03T09:19:28;46.6;38.3;60.5;;
65079;Laerm;52655;52.218;5.964;2023-04-03T09:21:27;46.6;40.1;60.6;;
65079;Laerm;52655;52.218;5.964;2023-04-03T09:23:20;44.1;37.6;56.0;;
65079;Laerm;52655;52.218;5.964;2023-04-03T09:25:17;45.5;40.6;59.8;;
65079;Laerm;52655;52.218;5.964;2023-04-03T09:27:13;46.5;40.3;59.8;;
65079;Laerm;52655;52.218;5.964;2023-04-03T09:29:14;50.5;38.2;78.0;;
65079;Laerm;52655;52.218;5.964;2023-04-03T09:31:21;47.4;38.9;63.7;;
65079;Laerm;52655;52.218;5.964;2023-04-03T09:33:13;47.1;38.0;61.5;;
65079;Laerm;52655;52.218;5.964;2023-04-03T09:35:19;44.7;37.6;56.2;;
65079;Laerm;52655;52.218;5.964;2023-04-03T09:37:33;45.2;39.1;57.9;;
65079;Laerm;52655;52.218;5.964;2023-04-03T09:39:16;45.0;39.2;55.7;;
65079;Laerm;52655;52.218;5.964;2023-04-03T09:41:19;44.4;39.3;53.7;;
65079;Laerm;52655;52.218;5.964;2023-04-03T09:43:23;44.6;38.5;55.1;;
65079;Laerm;52655;52.218;5.964;2023-04-03T09:45:21;48.3;40.6;58.2;;
65079;Laerm;52655;52.218;5.964;2023-04-03T09:47:18;44.9;39.4;55.2;;
65079;Laerm;52655;52.218;5.964;2023-04-03T09:49:14;45.7;37.8;58.4;;
65079;Laerm;52655;52.218;5.964;2023-04-03T09:51:14;50.4;38.4;68.0;;
65079;Laerm;52655;52.218;5.964;2023-04-03T09:53:25;49.2;41.8;63.5;;
65079;Laerm;52655;52.218;5.964;2023-04-03T09:55:15;45.9;40.0;55.3;;
65079;Laerm;52655;52.218;5.964;2023-04-03T09:57:14;44.0;37.7;54.8;;
65079;Laerm;52655;52.218;5.964;2023-04-03T09:59:14;45.7;39.8;53.6;;
65079;Laerm;52655;52.218;5.964;2023-04-03T10:01:23;61.5;41.5;74.4;;
65079;Laerm;52655;52.218;5.964;2023-04-03T10:05:27;46.6;40.4;55.9;;
65079;Laerm;52655;52.218;5.964;2023-04-03T10:07:39;46.2;39.8;56.0;;
65079;Laerm;52655;52.218;5.964;2023-04-03T10:09:16;45.3;39.8;53.3;;
65079;Laerm;52655;52.218;5.964;2023-04-03T10:11:15;48.2;42.6;59.9;;
65079;Laerm;52655;52.218;5.964;2023-04-03T10:13:15;46.0;39.4;58.4;;
65079;Laerm;52655;52.218;5.964;2023-04-03T10:15:15;47.6;39.8;61.0;;
65079;Laerm;52655;52.218;5.964;2023-04-03T10:17:25;46.9;40.7;59.7;;
65079;Laerm;52655;52.218;5.964;2023-04-03T10:19:30;47.8;39.7;62.0;;
65079;Laerm;52655;52.218;5.964;2023-04-03T10:21:18;48.0;40.5;58.3;;
65079;Laerm;52655;52.218;5.964;2023-04-03T10:23:17;45.6;40.0;53.9;;
65079;Laerm;52655;52.218;5.964;2023-04-03T10:25:17;48.4;39.5;64.3;;
65079;Laerm;52655;52.218;5.964;2023-04-03T10:27:18;46.6;39.8;59.0;;
65079;Laerm;52655;52.218;5.964;2023-04-03T10:29:23;46.0;39.3;55.1;;
65079;Laerm;52655;52.218;5.964;2023-04-03T10:31:21;47.9;39.7;59.1;;
65079;Laerm;52655;52.218;5.964;2023-04-03T10:33:43;46.1;40.6;57.7;;
65079;Laerm;52655;52.218;5.964;2023-04-03T10:35:24;45.9;39.6;56.9;;
65079;Laerm;52655;52.218;5.964;2023-04-03T10:37:40;48.3;39.6;59.8;;
65079;Laerm;52655;52.218;5.964;2023-04-03T10:39:32;48.8;40.7;66.1;;
65079;Laerm;52655;52.218;5.964;2023-04-03T10:41:27;46.4;39.8;58.4;;
65079;Laerm;52655;52.218;5.964;2023-04-03T10:43:25;46.4;38.3;56.1;;
65079;Laerm;52655;52.218;5.964;2023-04-03T10:45:28;46.1;40.6;54.9;;
65079;Laerm;52655;52.218;5.964;2023-04-03T10:47:22;46.0;39.2;61.2;;
65079;Laerm;52655;52.218;5.964;2023-04-03T10:49:26;47.4;40.1;56.4;;
65079;Laerm;52655;52.218;5.964;2023-04-03T10:51:41;48.2;39.6;66.2;;
65079;Laerm;52655;52.218;5.964;2023-04-03T10:53:21;45.6;39.8;57.6;;
65079;Laerm;52655;52.218;5.964;2023-04-03T10:55:30;45.8;39.5;58.7;;
65079;Laerm;52655;52.218;5.964;2023-04-03T10:57:16;49.5;40.8;65.9;;
65079;Laerm;52655;52.218;5.964;2023-04-03T10:59:17;47.4;39.4;60.8;;
65079;Laerm;52655;52.218;5.964;2023-04-03T11:01:16;45.9;41.2;53.5;;
65079;Laerm;52655;52.218;5.964;2023-04-03T11:03:17;46.8;39.4;57.1;;
65079;Laerm;52655;52.218;5.964;2023-04-03T11:05:30;48.6;41.5;62.6;;
65079;Laerm;52655;52.218;5.964;2023-04-03T11:07:22;49.8;42.6;67.9;;
65079;Laerm;52655;52.218;5.964;2023-04-03T11:09:22;47.2;40.5;61.7;;
65079;Laerm;52655;52.218;5.964;2023-04-03T11:11:17;47.1;39.9;63.2;;
65079;Laerm;52655;52.218;5.964;2023-04-03T11:13:17;48.6;39.0;57.4;;
65079;Laerm;52655;52.218;5.964;2023-04-03T11:15:17;46.2;41.0;54.1;;
65079;Laerm;52655;52.218;5.964;2023-04-03T11:17:23;47.0;38.9;58.1;;
65079;Laerm;52655;52.218;5.964;2023-04-03T11:19:17;48.0;42.0;55.9;;
65079;Laerm;52655;52.218;5.964;2023-04-03T11:21:19;48.0;39.7;58.4;;
65079;Laerm;52655;52.218;5.964;2023-04-03T11:23:18;48.2;41.1;61.7;;
65079;Laerm;52655;52.218;5.964;2023-04-03T11:25:19;46.7;41.1;54.0;;
65079;Laerm;52655;52.218;5.964;2023-04-03T11:27:17;48.2;42.3;62.2;;
65079;Laerm;52655;52.218;5.964;2023-04-03T11:29:18;45.9;41.0;60.5;;
65079;Laerm;52655;52.218;5.964;2023-04-03T11:31:29;45.5;38.4;57.6;;
65079;Laerm;52655;52.218;5.964;2023-04-03T11:33:47;45.3;39.1;54.6;;
65079;Laerm;52655;52.218;5.964;2023-04-03T11:35:17;49.0;41.4;59.0;;
65079;Laerm;52655;52.218;5.964;2023-04-03T11:37:22;50.7;42.0;64.9;;
65079;Laerm;52655;52.218;5.964;2023-04-03T11:39:23;46.9;38.4;63.2;;
65079;Laerm;52655;52.218;5.964;2023-04-03T11:41:17;48.7;40.2;62.7;;
65079;Laerm;52655;52.218;5.964;2023-04-03T11:43:25;46.9;39.5;62.0;;
65079;Laerm;52655;52.218;5.964;2023-04-03T11:45:49;48.3;38.7;61.5;;
65079;Laerm;52655;52.218;5.964;2023-04-03T11:47:44;45.7;38.7;66.6;;
65079;Laerm;52655;52.218;5.964;2023-04-03T11:49:51;44.7;38.5;60.0;;
65079;Laerm;52655;52.218;5.964;2023-04-03T11:51:43;45.0;39.0;54.6;;
65079;Laerm;52655;52.218;5.964;2023-04-03T11:53:35;46.2;39.3;61.3;;
65079;Laerm;52655;52.218;5.964;2023-04-03T11:55:54;46.0;40.9;53.4;;
65079;Laerm;52655;52.218;5.964;2023-04-03T11:57:46;45.5;39.0;53.8;;
65079;Laerm;52655;52.218;5.964;2023-04-03T11:59:24;43.9;36.8;52.0;;
65079;Laerm;52655;52.218;5.964;2023-04-03T12:01:45;44.8;37.8;53.8;;
65079;Laerm;52655;52.218;5.964;2023-04-03T12:03:56;46.7;37.9;58.6;;
65079;Laerm;52655;52.218;5.964;2023-04-03T12:05:30;45.6;38.2;55.3;;